Time;durP1;ratioP1;P1;durP2;ratioP2;P2;SDS_P1;SDS_P2;PMS_P1;PMS_P2;Temp;Humidity;BMP_temperature;BMP_pressure;BME280_temperature;BME280_humidity;BME280_pressure;Samples;Min_cycle;Max_cycle;Signal;HPM_P1;HPM_P2
2023/02/02 00:01:23;;;;;;;2.57;1.77;;;5.30;99.90;;;;;;6237664;22;20407;-88
2023/02/02 00:03:50;;;;;;;4.87;2.40;;;3.80;99.90;;;;;;6225478;23;20486;-86
2023/02/02 00:06:17;;;;;;;10.27;2.43;;;4.10;99.90;;;;;;6231650;23;20918;-87
2023/02/02 00:08:44;;;;;;;4.07;1.97;;;4.10;99.90;;;;;;6219966;23;20409;-88
2023/02/02 00:11:13;;;;;;;6.73;2.17;;;4.10;99.90;;;;;;6229588;22;20403;-88
2023/02/02 00:13:40;;;;;;;4.03;2.30;;;4.00;99.90;;;;;;6233168;22;20458;-88
2023/02/02 00:16:35;;;;;;;5.33;2.30;;;4.00;99.90;;;;;;6223603;23;20408;-88
2023/02/02 00:19:04;;;;;;;3.20;1.87;;;3.90;99.90;;;;;;6224088;23;20461;-89
2023/02/02 00:21:31;;;;;;;10.40;2.53;;;4.00;99.90;;;;;;6232730;23;20407;-88
2023/02/02 00:23:58;;;;;;;6.10;1.80;;;4.00;99.90;;;;;;6220464;23;20443;-90
2023/02/02 00:26:26;;;;;;;4.73;2.70;;;4.00;99.90;;;;;;6219117;23;20443;-88
2023/02/02 00:28:52;;;;;;;6.70;2.30;;;3.90;99.90;;;;;;6220281;23;20419;-88
2023/02/02 00:31:19;;;;;;;7.03;2.40;;;4.00;99.90;;;;;;6229505;22;20437;-87
2023/02/02 00:33:47;;;;;;;4.90;2.50;;;3.90;99.90;;;;;;6229322;23;20411;-89
2023/02/02 00:36:13;;;;;;;5.80;1.90;;;3.90;99.90;;;;;;6218836;23;20498;-88
2023/02/02 00:38:40;;;;;;;5.10;2.50;;;3.90;99.90;;;;;;6225130;23;20443;-86
2023/02/02 00:41:07;;;;;;;4.90;1.97;;;3.90;99.90;;;;;;6224948;23;20439;-87
2023/02/02 00:43:35;;;;;;;5.83;2.70;;;3.90;99.90;;;;;;6234015;23;20410;-86
2023/02/02 00:46:01;;;;;;;5.03;2.57;;;3.80;99.90;;;;;;6219553;23;20400;-87
2023/02/02 00:48:28;;;;;;;2.07;1.80;;;3.80;99.90;;;;;;6222642;23;20442;-87
2023/02/02 00:50:56;;;;;;;5.33;2.23;;;3.80;99.90;;;;;;6222356;23;20203;-86
2023/02/02 00:53:22;;;;;;;3.97;1.93;;;3.80;99.90;;;;;;6237983;22;20437;-83
2023/02/02 00:55:49;;;;;;;7.50;2.90;;;3.80;99.90;;;;;;6223111;23;20406;-86
2023/02/02 00:58:16;;;;;;;3.83;2.23;;;3.70;99.90;;;;;;6235024;22;20410;-88
2023/02/02 01:00:44;;;;;;;3.40;2.57;;;3.70;99.90;;;;;;6225737;23;20403;-89
2023/02/02 01:03:12;;;;;;;7.90;2.17;;;3.60;99.90;;;;;;6236810;23;20402;-80
2023/02/02 01:05:39;;;;;;;9.90;3.13;;;3.50;99.90;;;;;;6238131;23;20441;-88
2023/02/02 01:08:06;;;;;;;7.43;3.03;;;3.50;99.90;;;;;;6237550;23;20402;-83
2023/02/02 01:10:33;;;;;;;7.50;3.07;;;3.40;99.90;;;;;;6235750;23;20482;-82
2023/02/02 01:13:00;;;;;;;4.20;2.07;;;3.40;99.90;;;;;;6232376;22;20447;-86
2023/02/02 01:15:29;;;;;;;10.00;3.10;;;3.00;99.90;;;;;;6244675;22;20379;-81
2023/02/02 01:17:57;;;;;;;10.33;3.63;;;4.20;99.90;;;;;;6226067;22;20446;-85
2023/02/02 01:25:37;;;;;;;5.10;3.33;;;3.40;99.90;;;;;;6233468;22;20835;-90
2023/02/02 01:28:04;;;;;;;10.53;2.70;;;3.30;99.90;;;;;;6241085;22;20398;-87
2023/02/02 01:30:31;;;;;;;3.93;2.27;;;3.40;99.90;;;;;;6237729;23;20441;-90
2023/02/02 01:32:59;;;;;;;8.00;3.07;;;3.40;99.90;;;;;;6242485;22;20449;-87
2023/02/02 01:35:25;;;;;;;5.97;2.93;;;3.40;99.90;;;;;;6240645;22;20395;-87
2023/02/02 01:37:52;;;;;;;4.63;2.67;;;4.50;99.90;;;;;;6232022;23;20403;-88
2023/02/02 01:40:19;;;;;;;3.00;1.93;;;3.00;99.90;;;;;;6241208;23;20391;-81
2023/02/02 01:42:46;;;;;;;3.37;2.10;;;4.10;99.90;;;;;;6242315;23;20406;-88
2023/02/02 01:45:27;;;;;;;6.70;2.63;;;3.30;99.90;;;;;;6235902;22;20445;-85
2023/02/02 01:50:34;;;;;;;4.77;2.67;;;3.70;99.90;;;;;;6235508;22;20571;-87
2023/02/02 01:53:05;;;;;;;4.97;2.50;;;3.70;99.90;;;;;;6222297;22;20446;-88
2023/02/02 01:55:34;;;;;;;10.10;3.20;;;3.60;99.90;;;;;;6239408;23;20429;-88
2023/02/02 01:58:04;;;;;;;7.20;2.70;;;3.10;99.90;;;;;;6230981;22;21173;-86
2023/02/02 02:00:31;;;;;;;3.77;2.40;;;4.30;99.90;;;;;;6225729;22;20520;-87
2023/02/02 02:03:02;;;;;;;4.60;1.73;;;3.70;99.90;;;;;;6241196;22;20395;-89
2023/02/02 02:05:33;;;;;;;8.00;2.77;;;3.90;99.90;;;;;;6229795;23;20419;-90
2023/02/02 02:08:07;;;;;;;8.17;2.77;;;3.40;99.90;;;;;;6224753;23;20403;-83
2023/02/02 02:10:34;;;;;;;4.20;2.43;;;3.40;99.90;;;;;;6239404;22;20469;-87
2023/02/02 02:13:01;;;;;;;5.97;2.40;;;3.50;99.90;;;;;;6222307;23;20542;-86
2023/02/02 02:18:29;;;;;;;3.80;1.60;;;3.40;99.90;;;;;;6230881;22;20484;-87
2023/02/02 02:28:33;;;;;;;5.40;2.67;;;3.70;99.90;;;;;;6233584;22;20382;-84
2023/02/02 02:31:38;;;;;;;4.47;2.00;;;3.70;99.90;;;;;;6238726;22;20462;-86
2023/02/02 02:34:12;;;;;;;4.87;2.87;;;3.70;99.90;;;;;;6237465;23;20417;-86
2023/02/02 02:36:45;;;;;;;5.47;2.80;;;3.80;99.90;;;;;;6236735;22;20414;-88
2023/02/02 02:39:19;;;;;;;6.63;3.63;;;3.70;99.90;;;;;;6228962;23;20462;-87
2023/02/02 02:41:52;;;;;;;3.70;2.50;;;3.70;99.90;;;;;;6241147;22;20426;-79
2023/02/02 02:44:21;;;;;;;7.63;2.27;;;3.80;99.90;;;;;;6241654;22;20470;-87
2023/02/02 02:46:49;;;;;;;5.80;2.53;;;3.80;99.90;;;;;;6222134;23;20467;-83
2023/02/02 02:49:18;;;;;;;3.53;2.47;;;3.80;99.90;;;;;;6215408;23;20399;-88
2023/02/02 02:51:47;;;;;;;9.30;2.43;;;3.70;99.90;;;;;;6221290;23;20410;-89
2023/02/02 02:54:17;;;;;;;3.47;2.00;;;3.70;99.90;;;;;;6228483;23;20442;-87
2023/02/02 02:57:22;;;;;;;3.00;2.50;;;3.80;99.90;;;;;;6219541;23;20435;-85
2023/02/02 02:59:56;;;;;;;7.67;3.67;;;3.80;99.90;;;;;;6133212;23;20408;-86
2023/02/02 03:02:36;;;;;;;6.93;2.50;;;3.70;99.90;;;;;;6125647;23;20420;-88
2023/02/02 03:05:23;;;;;;;7.43;3.13;;;3.70;99.90;;;;;;6182294;23;20764;-87
2023/02/02 03:07:56;;;;;;;3.00;2.17;;;3.80;99.90;;;;;;6221707;23;20405;-88
2023/02/02 03:10:26;;;;;;;4.40;2.60;;;3.80;99.90;;;;;;6230626;23;20466;-86
2023/02/02 03:12:54;;;;;;;4.50;2.10;;;3.80;99.90;;;;;;6227903;23;20388;-86
2023/02/02 03:15:21;;;;;;;5.83;2.53;;;3.80;99.90;;;;;;6221863;23;20417;-88
2023/02/02 03:17:50;;;;;;;1.73;1.63;;;3.80;99.90;;;;;;6235778;22;20435;-84
2023/02/02 03:20:19;;;;;;;4.70;2.43;;;3.80;99.90;;;;;;6231845;22;20505;-87
2023/02/02 03:22:46;;;;;;;6.57;2.50;;;3.70;99.90;;;;;;6230489;23;20470;-89
2023/02/02 03:25:13;;;;;;;4.90;2.80;;;3.70;99.90;;;;;;6236194;23;20402;-84
2023/02/02 03:27:40;;;;;;;3.23;2.23;;;3.70;99.90;;;;;;6238242;22;20467;-81
2023/02/02 03:30:10;;;;;;;6.53;2.60;;;3.80;99.90;;;;;;6242672;22;20439;-88
2023/02/02 03:32:37;;;;;;;5.30;2.70;;;3.70;99.90;;;;;;6239611;23;20379;-80
2023/02/02 03:35:05;;;;;;;9.13;2.40;;;3.60;99.90;;;;;;6245920;22;20426;-79
2023/02/02 03:37:33;;;;;;;7.47;3.40;;;3.50;99.90;;;;;;6245711;22;20479;-80
2023/02/02 03:42:35;;;;;;;1.93;1.73;;;3.20;99.90;;;;;;6229425;22;20488;-88
2023/02/02 03:45:02;;;;;;;12.53;3.53;;;3.00;99.90;;;;;;6244301;22;20437;-88
2023/02/02 03:47:29;;;;;;;5.07;2.53;;;3.00;99.90;;;;;;6244454;22;20394;-90
2023/02/02 03:49:56;;;;;;;4.33;2.70;;;3.10;99.90;;;;;;6241976;22;20477;-81
2023/02/02 03:52:23;;;;;;;10.20;3.40;;;3.00;99.90;;;;;;6227850;22;20453;-87
2023/02/02 03:54:51;;;;;;;4.30;3.70;;;3.60;99.90;;;;;;6245795;22;20451;-81
2023/02/02 03:59:54;;;;;;;4.77;3.60;;;3.50;99.90;;;;;;6228392;22;20457;-86
2023/02/02 04:02:20;;;;;;;4.90;3.30;;;3.70;99.90;;;;;;6245505;22;20423;-81
2023/02/02 04:04:47;;;;;;;5.20;2.77;;;3.60;99.90;;;;;;6237714;22;20407;-87
2023/02/02 04:07:14;;;;;;;4.73;2.67;;;3.30;99.90;;;;;;6221464;23;20915;-89
2023/02/02 04:09:41;;;;;;;3.77;2.03;;;3.50;99.90;;;;;;6235405;22;20509;-87
2023/02/02 04:12:09;;;;;;;3.20;1.50;;;3.20;99.90;;;;;;6217828;23;20513;-86
2023/02/02 04:14:36;;;;;;;6.70;2.83;;;3.50;99.90;;;;;;6237483;22;20391;-82
2023/02/02 04:17:02;;;;;;;7.50;2.90;;;3.60;99.90;;;;;;6239001;23;20487;-88
2023/02/02 04:19:29;;;;;;;5.13;2.63;;;3.70;99.90;;;;;;6239349;23;20407;-81
2023/02/02 04:21:56;;;;;;;6.77;2.33;;;3.70;99.90;;;;;;6243114;22;20387;-86
2023/02/02 04:24:23;;;;;;;3.20;2.33;;;3.70;99.90;;;;;;6241514;22;20410;-91
2023/02/02 04:26:49;;;;;;;7.03;2.47;;;3.70;99.90;;;;;;6242218;22;20395;-86
2023/02/02 04:29:17;;;;;;;23.07;3.10;;;3.70;99.90;;;;;;6241312;22;20419;-87
2023/02/02 04:31:44;;;;;;;2.47;2.20;;;4.20;99.90;;;;;;6240208;23;20456;-90
2023/02/02 04:34:11;;;;;;;4.90;1.87;;;3.70;99.90;;;;;;6230133;23;20402;-86
2023/02/02 04:36:38;;;;;;;4.80;2.00;;;3.70;99.90;;;;;;6230973;23;20414;-90
2023/02/02 04:39:05;;;;;;;6.60;3.63;;;3.90;99.90;;;;;;6219065;23;20413;-86
2023/02/02 04:41:32;;;;;;;6.50;2.57;;;3.60;99.90;;;;;;6226654;22;20515;-73
2023/02/02 04:43:59;;;;;;;5.17;2.50;;;3.70;99.90;;;;;;6210905;23;20866;-76
2023/02/02 04:46:27;;;;;;;4.13;2.40;;;3.60;99.90;;;;;;6211814;23;20418;-76
2023/02/02 04:48:54;;;;;;;6.00;2.50;;;3.70;99.90;;;;;;6212167;23;20461;-76
2023/02/02 04:51:21;;;;;;;3.10;2.00;;;3.70;99.90;;;;;;6211935;23;20441;-78
2023/02/02 04:53:47;;;;;;;4.77;2.13;;;3.70;99.90;;;;;;6211852;23;20437;-77
2023/02/02 04:56:16;;;;;;;5.20;2.30;;;3.90;99.90;;;;;;6211290;23;20399;-77
2023/02/02 04:58:43;;;;;;;5.77;2.33;;;3.90;99.90;;;;;;6210813;23;20449;-77
2023/02/02 05:01:11;;;;;;;11.23;2.50;;;3.90;99.90;;;;;;6211033;23;20491;-76
2023/02/02 05:03:39;;;;;;;4.13;2.40;;;3.90;99.90;;;;;;6211406;23;20406;-77
2023/02/02 05:06:06;;;;;;;6.47;2.60;;;3.90;99.90;;;;;;6211599;23;20469;-76
2023/02/02 05:08:33;;;;;;;2.60;1.53;;;3.90;99.90;;;;;;6210567;23;20523;-76
2023/02/02 05:11:00;;;;;;;2.80;2.30;;;3.90;99.90;;;;;;6210259;23;20848;-76
2023/02/02 05:13:27;;;;;;;3.23;1.90;;;4.00;99.90;;;;;;6210890;23;20741;-77
2023/02/02 05:15:54;;;;;;;10.97;2.60;;;3.90;99.90;;;;;;6211325;23;20395;-78
2023/02/02 05:18:21;;;;;;;4.10;1.80;;;3.90;99.90;;;;;;6211306;23;20885;-77
2023/02/02 05:20:50;;;;;;;6.67;3.00;;;4.00;99.90;;;;;;6211056;23;20409;-76
2023/02/02 05:23:16;;;;;;;4.57;2.60;;;3.90;99.90;;;;;;6210790;23;20905;-78
2023/02/02 05:25:43;;;;;;;2.40;1.60;;;3.90;99.90;;;;;;6211821;23;20411;-77
2023/02/02 05:28:10;;;;;;;4.10;2.10;;;4.00;99.90;;;;;;6212174;23;20902;-78
2023/02/02 05:30:39;;;;;;;6.77;1.90;;;3.90;99.90;;;;;;6211728;23;20983;-78
2023/02/02 05:33:06;;;;;;;4.20;2.27;;;3.90;99.90;;;;;;6213518;23;20419;-78
2023/02/02 05:35:33;;;;;;;5.33;3.07;;;3.90;99.90;;;;;;6211473;23;20391;-78
2023/02/02 05:38:01;;;;;;;5.10;2.27;;;3.90;99.90;;;;;;6211315;23;20413;-78
2023/02/02 05:40:28;;;;;;;7.00;3.40;;;3.90;99.90;;;;;;6211373;23;20411;-77
2023/02/02 05:42:54;;;;;;;3.97;2.03;;;4.00;99.90;;;;;;6210366;23;20418;-78
2023/02/02 05:45:22;;;;;;;4.17;2.43;;;3.90;99.90;;;;;;6210616;23;20411;-81
2023/02/02 05:47:48;;;;;;;3.90;1.80;;;3.90;99.90;;;;;;6213841;23;20418;-81
2023/02/02 05:50:16;;;;;;;2.70;2.40;;;3.90;99.90;;;;;;6213294;23;20415;-77
2023/02/02 05:52:44;;;;;;;4.47;3.07;;;3.80;99.90;;;;;;6211336;23;20427;-80
2023/02/02 05:55:12;;;;;;;2.90;2.40;;;3.80;99.90;;;;;;6216821;23;20407;-78
2023/02/02 05:57:39;;;;;;;2.23;1.43;;;3.70;99.90;;;;;;6215910;23;20405;-78
2023/02/02 06:00:08;;;;;;;4.67;2.10;;;3.90;99.90;;;;;;6216559;23;20442;-77
2023/02/02 06:02:34;;;;;;;4.23;2.27;;;3.80;99.90;;;;;;6213881;23;20403;-79
2023/02/02 06:05:01;;;;;;;3.40;1.60;;;4.00;99.90;;;;;;6217842;23;20465;-80
2023/02/02 06:07:28;;;;;;;5.80;2.67;;;3.90;99.90;;;;;;6215430;23;20402;-80
2023/02/02 06:09:55;;;;;;;4.40;2.07;;;4.00;99.90;;;;;;6213081;23;20473;-79
2023/02/02 06:12:23;;;;;;;3.33;1.57;;;3.90;99.90;;;;;;6209636;23;20458;-77
2023/02/02 06:14:50;;;;;;;5.40;2.53;;;3.90;99.90;;;;;;6207799;23;20415;-78
2023/02/02 06:17:16;;;;;;;2.50;2.10;;;3.90;99.90;;;;;;6208749;23;20403;-77
2023/02/02 06:19:43;;;;;;;3.47;2.70;;;3.80;99.90;;;;;;6209595;23;20668;-75
2023/02/02 06:22:10;;;;;;;4.80;2.77;;;3.80;99.90;;;;;;6208538;23;20740;-77
2023/02/02 06:24:37;;;;;;;3.20;2.63;;;3.80;99.90;;;;;;6207698;23;20934;-77
2023/02/02 06:27:04;;;;;;;2.40;1.80;;;3.90;99.90;;;;;;6207819;23;20743;-76
2023/02/02 06:29:32;;;;;;;4.80;2.00;;;3.90;99.90;;;;;;6208404;23;20414;-76
2023/02/02 06:31:59;;;;;;;7.80;3.17;;;3.90;99.90;;;;;;6208101;23;21075;-76
2023/02/02 06:34:25;;;;;;;5.37;2.07;;;3.90;99.90;;;;;;6209878;23;20418;-80
2023/02/02 06:36:52;;;;;;;3.63;2.00;;;3.90;99.90;;;;;;6211817;23;20742;-82
2023/02/02 06:39:19;;;;;;;4.00;2.23;;;3.90;99.90;;;;;;6211438;23;20418;-79
2023/02/02 06:41:47;;;;;;;6.00;2.30;;;3.90;99.90;;;;;;6210499;23;20497;-78
2023/02/02 06:44:14;;;;;;;6.00;2.67;;;3.90;99.90;;;;;;6208947;23;20437;-78
2023/02/02 06:46:42;;;;;;;2.73;2.17;;;3.90;99.90;;;;;;6210378;23;20426;-79
2023/02/02 06:49:09;;;;;;;3.80;1.67;;;3.90;99.90;;;;;;6210323;23;20483;-77
2023/02/02 06:51:36;;;;;;;4.67;2.50;;;3.90;99.90;;;;;;6209322;23;20932;-77
2023/02/02 06:54:03;;;;;;;3.20;1.60;;;3.90;99.90;;;;;;6208898;23;20411;-78
2023/02/02 06:56:30;;;;;;;2.90;1.93;;;4.00;99.90;;;;;;6209288;23;20422;-78
2023/02/02 06:58:57;;;;;;;3.10;1.67;;;4.00;99.90;;;;;;6208590;23;20450;-77
2023/02/02 07:01:24;;;;;;;3.10;2.23;;;3.90;99.90;;;;;;6209410;23;20407;-79
2023/02/02 07:03:52;;;;;;;5.33;2.20;;;3.90;99.90;;;;;;6209925;23;20420;-77
2023/02/02 07:06:21;;;;;;;3.33;2.23;;;3.90;99.90;;;;;;6210602;23;20415;-79
2023/02/02 07:08:49;;;;;;;2.53;1.40;;;3.90;99.90;;;;;;6209075;23;20408;-77
2023/02/02 07:11:17;;;;;;;8.40;1.50;;;3.90;99.90;;;;;;6208778;23;20516;-79
2023/02/02 07:13:44;;;;;;;6.37;2.10;;;4.00;99.90;;;;;;6209395;23;20411;-77
2023/02/02 07:16:12;;;;;;;2.33;1.83;;;3.90;99.90;;;;;;6208767;23;20426;-77
2023/02/02 07:18:41;;;;;;;3.43;2.23;;;4.00;99.90;;;;;;6209429;23;20413;-76
2023/02/02 07:21:15;;;;;;;4.70;2.50;;;4.00;99.90;;;;;;6209118;23;20404;-76
2023/02/02 07:23:42;;;;;;;13.10;3.27;;;4.00;99.90;;;;;;6210029;23;20719;-76
2023/02/02 07:26:10;;;;;;;4.90;2.00;;;3.90;99.90;;;;;;6209142;23;20407;-76
2023/02/02 07:28:37;;;;;;;2.53;2.10;;;3.90;99.90;;;;;;6209737;23;20406;-77
2023/02/02 07:31:13;;;;;;;3.47;2.30;;;4.00;99.90;;;;;;6208499;23;20452;-76
2023/02/02 07:33:41;;;;;;;4.27;2.50;;;4.00;99.90;;;;;;6209042;23;20391;-76
2023/02/02 07:36:10;;;;;;;2.37;2.17;;;4.00;99.90;;;;;;6209433;23;20403;-76
2023/02/02 07:38:36;;;;;;;5.23;2.40;;;4.10;99.90;;;;;;6208887;23;20818;-75
2023/02/02 07:41:04;;;;;;;6.37;2.43;;;4.00;99.90;;;;;;6209344;23;20407;-75
2023/02/02 07:43:30;;;;;;;11.37;3.00;;;4.00;99.90;;;;;;6209644;23;20407;-76
2023/02/02 07:46:01;;;;;;;5.13;2.80;;;4.10;99.90;;;;;;6208760;23;20911;-76
2023/02/02 07:48:29;;;;;;;5.07;2.80;;;4.10;99.90;;;;;;6209534;23;20498;-76
2023/02/02 07:50:59;;;;;;;5.67;2.03;;;4.00;99.90;;;;;;6208950;23;20579;-75
2023/02/02 07:53:27;;;;;;;5.47;3.50;;;4.00;99.90;;;;;;6208666;23;20425;-76
2023/02/02 07:55:54;;;;;;;2.50;2.30;;;4.00;99.90;;;;;;6208693;23;20410;-76
2023/02/02 07:58:21;;;;;;;3.63;2.50;;;3.90;99.90;;;;;;6208273;23;20763;-77
2023/02/02 08:00:47;;;;;;;7.37;2.80;;;4.00;99.90;;;;;;6209186;23;20413;-76
2023/02/02 08:03:14;;;;;;;7.10;2.87;;;4.00;99.90;;;;;;6208305;23;20417;-77
2023/02/02 08:05:41;;;;;;;4.63;2.07;;;3.90;99.90;;;;;;6206820;23;20418;-77
2023/02/02 08:08:08;;;;;;;14.60;2.63;;;3.90;99.90;;;;;;6208679;23;20426;-76
2023/02/02 08:10:38;;;;;;;2.20;2.00;;;3.80;99.90;;;;;;6209855;23;20417;-76
2023/02/02 08:13:05;;;;;;;3.17;1.80;;;3.90;99.90;;;;;;6209641;23;20509;-76
2023/02/02 08:15:32;;;;;;;5.33;1.67;;;3.90;99.90;;;;;;6209859;23;20923;-76
2023/02/02 08:17:59;;;;;;;4.10;2.67;;;4.10;99.90;;;;;;6209127;23;20749;-75
2023/02/02 08:20:26;;;;;;;4.07;2.47;;;4.00;99.90;;;;;;6209809;23;20427;-76
2023/02/02 08:22:53;;;;;;;4.63;2.40;;;3.90;99.90;;;;;;6209463;23;20403;-76
2023/02/02 08:25:20;;;;;;;3.23;2.30;;;3.90;99.90;;;;;;6210077;23;20407;-75
2023/02/02 08:27:48;;;;;;;2.77;2.57;;;3.90;99.90;;;;;;6209473;23;20463;-77
2023/02/02 08:30:15;;;;;;;5.30;2.63;;;3.90;99.90;;;;;;6211303;23;20418;-76
2023/02/02 08:32:41;;;;;;;3.93;3.20;;;3.90;99.90;;;;;;6209577;23;20445;-78
2023/02/02 08:35:08;;;;;;;7.80;2.80;;;3.90;99.90;;;;;;6208610;23;20647;-76
2023/02/02 08:37:35;;;;;;;4.33;2.97;;;3.80;99.90;;;;;;6209735;23;20419;-75
2023/02/02 08:40:02;;;;;;;4.63;2.43;;;3.80;99.90;;;;;;6209095;23;20418;-76
2023/02/02 08:42:29;;;;;;;5.87;2.10;;;4.00;99.90;;;;;;6208486;23;20909;-77
2023/02/02 08:44:57;;;;;;;4.87;2.87;;;3.90;99.90;;;;;;6210968;23;20426;-77
2023/02/02 08:47:24;;;;;;;3.40;2.23;;;3.40;99.90;;;;;;6211711;23;20403;-78
2023/02/02 08:49:51;;;;;;;9.33;3.07;;;3.80;99.90;;;;;;6209381;23;20435;-76
2023/02/02 08:52:17;;;;;;;4.40;2.50;;;3.80;99.90;;;;;;6209040;23;20508;-78
2023/02/02 08:54:45;;;;;;;6.10;3.57;;;3.90;99.90;;;;;;6210083;23;20413;-78
2023/02/02 08:57:12;;;;;;;5.57;3.07;;;3.70;99.90;;;;;;6219925;23;20414;-77
2023/02/02 08:59:38;;;;;;;5.00;2.90;;;3.70;99.90;;;;;;6219005;23;20681;-79
2023/02/02 09:02:08;;;;;;;5.80;3.87;;;3.70;99.90;;;;;;6211083;23;20415;-78
2023/02/02 09:04:35;;;;;;;3.10;2.40;;;3.70;99.90;;;;;;6216145;23;20482;-78
2023/02/02 09:07:02;;;;;;;4.80;2.67;;;3.80;99.90;;;;;;6212046;23;20418;-78
2023/02/02 09:09:28;;;;;;;7.80;2.50;;;3.80;99.90;;;;;;6210019;23;20402;-77
2023/02/02 09:11:55;;;;;;;9.93;3.07;;;3.80;99.90;;;;;;6210163;23;20454;-77
2023/02/02 09:14:22;;;;;;;7.03;3.60;;;3.80;99.90;;;;;;6212321;23;20410;-77
2023/02/02 09:16:49;;;;;;;3.80;2.67;;;3.80;99.90;;;;;;6209527;23;20407;-77
2023/02/02 09:19:17;;;;;;;3.80;2.93;;;3.70;99.90;;;;;;6209741;23;20414;-80
2023/02/02 09:21:44;;;;;;;4.40;2.67;;;3.80;99.90;;;;;;6211810;23;20926;-77
2023/02/02 09:24:13;;;;;;;5.27;3.03;;;3.80;99.90;;;;;;6208386;23;20413;-77
2023/02/02 09:26:40;;;;;;;3.10;2.60;;;3.80;99.90;;;;;;6209100;23;20404;-77
2023/02/02 09:29:10;;;;;;;3.03;2.20;;;3.70;99.90;;;;;;6209273;23;20411;-77
2023/02/02 09:31:38;;;;;;;4.47;2.97;;;3.80;99.90;;;;;;6209801;23;20431;-78
2023/02/02 09:34:06;;;;;;;2.80;2.23;;;3.70;99.90;;;;;;6211980;23;20446;-79
2023/02/02 09:36:35;;;;;;;8.53;2.60;;;3.80;99.90;;;;;;6207705;23;20422;-77
2023/02/02 09:39:02;;;;;;;7.83;2.60;;;3.80;99.90;;;;;;6208783;23;20425;-77
2023/02/02 09:41:57;;;;;;;4.20;1.97;;;3.80;99.90;;;;;;6208767;23;20743;-77
2023/02/02 09:44:44;;;;;;;7.33;2.73;;;3.80;99.90;;;;;;6208665;23;20598;-78
2023/02/02 09:47:17;;;;;;;3.40;2.80;;;3.80;99.90;;;;;;6208517;23;20421;-78
2023/02/02 09:49:54;;;;;;;8.00;2.90;;;3.90;99.90;;;;;;6208867;23;20400;-81
2023/02/02 09:52:26;;;;;;;6.87;2.80;;;3.90;99.90;;;;;;6209069;23;20446;-77
2023/02/02 09:54:59;;;;;;;5.30;3.33;;;3.80;99.90;;;;;;6208249;23;20491;-77
2023/02/02 09:57:31;;;;;;;7.03;3.07;;;3.80;99.90;;;;;;6209226;23;20410;-79
2023/02/02 09:59:58;;;;;;;6.30;3.90;;;3.70;99.90;;;;;;6208745;23;20438;-77
2023/02/02 10:02:31;;;;;;;5.10;3.00;;;3.90;99.90;;;;;;6208648;23;20419;-78
2023/02/02 10:05:07;;;;;;;8.57;2.60;;;3.70;99.90;;;;;;6208606;23;20392;-78
2023/02/02 10:07:40;;;;;;;2.50;2.30;;;3.80;99.90;;;;;;6208977;23;20395;-77
2023/02/02 10:10:14;;;;;;;7.17;3.70;;;3.80;99.90;;;;;;6209010;23;20712;-76
2023/02/02 10:12:46;;;;;;;2.87;2.33;;;3.80;99.90;;;;;;6208108;23;20437;-76
2023/02/02 10:15:21;;;;;;;3.83;2.10;;;3.80;99.90;;;;;;6208246;23;20379;-77
2023/02/02 10:17:52;;;;;;;4.30;2.23;;;3.90;99.90;;;;;;6208217;23;20486;-78
2023/02/02 10:20:31;;;;;;;5.87;2.83;;;3.90;99.90;;;;;;6208751;23;20386;-78
2023/02/02 10:23:09;;;;;;;7.03;3.33;;;4.00;99.90;;;;;;6209017;23;20387;-78
2023/02/02 10:25:36;;;;;;;5.27;2.50;;;4.10;99.90;;;;;;6208786;23;20391;-79
2023/02/02 10:28:11;;;;;;;6.00;3.30;;;4.10;99.90;;;;;;6208431;23;20416;-77
2023/02/02 10:30:45;;;;;;;2.83;1.97;;;4.10;99.90;;;;;;6208900;23;20401;-77
2023/02/02 10:33:20;;;;;;;4.10;2.03;;;4.10;99.90;;;;;;6209881;23;20427;-79
2023/02/02 10:35:54;;;;;;;1.83;1.73;;;4.20;99.90;;;;;;6208986;23;20391;-76
2023/02/02 10:38:31;;;;;;;5.93;2.33;;;4.20;99.90;;;;;;6208719;23;20395;-77
2023/02/02 10:41:06;;;;;;;3.73;2.57;;;4.20;99.90;;;;;;6207972;23;20738;-77
2023/02/02 10:44:01;;;;;;;5.40;2.47;;;4.20;99.90;;;;;;6208449;23;20402;-77
2023/02/02 10:46:33;;;;;;;2.03;1.93;;;4.20;99.90;;;;;;6205323;23;20411;-78
2023/02/02 10:49:22;;;;;;;2.13;1.93;;;4.20;99.90;;;;;;6207612;23;20410;-72
2023/02/02 10:51:56;;;;;;;3.47;2.63;;;4.20;99.90;;;;;;6207407;23;20647;-72
2023/02/02 10:54:39;;;;;;;3.33;2.27;;;4.30;99.90;;;;;;6207692;23;20460;-72
2023/02/02 10:57:08;;;;;;;4.50;3.00;;;4.20;99.90;;;;;;6207603;23;20403;-72
2023/02/02 10:59:45;;;;;;;3.10;2.20;;;4.20;99.90;;;;;;6207717;23;20434;-71
2023/02/02 11:02:12;;;;;;;3.00;2.40;;;4.20;99.90;;;;;;6207904;23;20396;-72
2023/02/02 11:07:23;;;;;;;4.37;2.33;;;4.30;99.90;;;;;;6207826;23;20398;-73
2023/02/02 11:09:52;;;;;;;2.70;1.97;;;4.30;99.90;;;;;;6207068;23;20407;-75
2023/02/02 11:12:24;;;;;;;5.87;2.87;;;4.40;99.90;;;;;;6207767;23;20955;-76
2023/02/02 11:14:57;;;;;;;2.23;1.80;;;4.30;99.90;;;;;;6211480;23;20436;-74
2023/02/02 11:17:25;;;;;;;6.30;2.50;;;4.30;99.90;;;;;;6211079;23;20650;-75
2023/02/02 11:19:54;;;;;;;3.00;2.07;;;4.40;99.90;;;;;;6210607;23;20425;-77
2023/02/02 11:22:28;;;;;;;2.10;1.90;;;4.40;99.90;;;;;;6208733;23;20422;-72
2023/02/02 11:24:58;;;;;;;7.57;2.57;;;4.40;99.90;;;;;;6206789;23;20391;-72
2023/02/02 11:27:30;;;;;;;2.70;2.40;;;4.50;99.90;;;;;;6206938;23;20398;-72
2023/02/02 11:29:59;;;;;;;4.13;2.50;;;4.50;99.90;;;;;;6207452;23;20388;-71
2023/02/02 11:32:29;;;;;;;2.73;2.30;;;4.60;99.90;;;;;;6207343;23;20447;-73
2023/02/02 11:35:20;;;;;;;3.00;2.50;;;4.40;99.90;;;;;;6207454;23;20447;-73
2023/02/02 11:38:00;;;;;;;2.70;1.97;;;4.40;99.90;;;;;;6208623;23;20717;-74
2023/02/02 11:40:32;;;;;;;3.80;2.60;;;4.40;99.90;;;;;;6211854;23;20466;-75
2023/02/02 11:43:00;;;;;;;6.93;2.00;;;4.40;99.90;;;;;;6212674;23;20888;-77
2023/02/02 11:45:33;;;;;;;2.23;1.90;;;4.50;99.90;;;;;;6211356;23;20413;-77
2023/02/02 11:48:04;;;;;;;2.93;2.40;;;4.30;99.90;;;;;;6211997;23;20395;-76
2023/02/02 11:50:31;;;;;;;2.10;1.80;;;4.50;99.90;;;;;;6209770;23;20722;-75
2023/02/02 11:52:58;;;;;;;3.40;2.43;;;4.30;99.90;;;;;;6208893;23;20464;-76
2023/02/02 11:55:30;;;;;;;4.53;2.40;;;4.40;99.90;;;;;;6209180;23;20425;-75
2023/02/02 11:58:23;;;;;;;6.00;2.00;;;4.50;99.90;;;;;;6209592;23;20490;-74
2023/02/02 12:00:53;;;;;;;3.47;1.83;;;4.50;99.90;;;;;;6178986;23;20450;-78
2023/02/02 12:03:34;;;;;;;6.23;2.50;;;4.50;99.90;;;;;;6181191;23;20483;-75
2023/02/02 12:06:16;;;;;;;2.57;2.37;;;4.50;99.90;;;;;;6180109;23;20409;-73
2023/02/02 12:08:43;;;;;;;2.07;1.87;;;4.40;99.90;;;;;;6180959;23;20402;-75
2023/02/02 12:11:22;;;;;;;9.67;2.80;;;4.40;99.90;;;;;;6180049;23;20412;-74
2023/02/02 12:13:58;;;;;;;4.17;1.90;;;4.40;99.90;;;;;;6180166;23;20439;-74
2023/02/02 12:16:48;;;;;;;6.30;2.10;;;4.40;99.90;;;;;;6179738;23;20412;-76
2023/02/02 12:19:35;;;;;;;4.50;2.00;;;4.40;99.90;;;;;;6179538;23;20396;-75
2023/02/02 12:22:12;;;;;;;3.73;1.97;;;4.40;99.90;;;;;;6179524;23;20414;-74
2023/02/02 12:24:48;;;;;;;5.73;2.83;;;4.30;99.90;;;;;;6176524;23;20368;-75
2023/02/02 12:27:27;;;;;;;4.47;2.43;;;4.20;99.90;;;;;;6176779;23;20398;-75
2023/02/02 12:30:10;;;;;;;2.63;1.80;;;4.30;99.90;;;;;;6177922;23;20404;-75
2023/02/02 12:32:54;;;;;;;2.10;1.90;;;4.10;99.90;;;;;;6177202;23;20436;-75
2023/02/02 12:35:38;;;;;;;4.43;2.53;;;4.10;99.90;;;;;;6177489;23;20392;-75
2023/02/02 12:38:15;;;;;;;3.50;2.80;;;4.00;99.90;;;;;;6178109;23;20417;-72
2023/02/02 12:41:01;;;;;;;5.83;2.50;;;4.00;99.90;;;;;;6178263;23;20435;-74
2023/02/02 12:43:39;;;;;;;2.90;2.23;;;4.00;99.90;;;;;;6179630;23;20393;-73
2023/02/02 12:46:37;;;;;;;3.57;2.57;;;3.90;99.90;;;;;;6179345;23;20414;-72
2023/02/02 12:49:21;;;;;;;7.03;3.77;;;3.90;99.90;;;;;;6161450;23;20404;-74
2023/02/02 12:51:59;;;;;;;2.83;2.07;;;4.20;99.90;;;;;;6180978;23;20400;-73
2023/02/02 12:54:56;;;;;;;4.40;2.23;;;3.90;99.90;;;;;;6181038;23;20443;-73
2023/02/02 12:57:38;;;;;;;6.93;2.53;;;3.90;99.90;;;;;;6178930;23;20467;-72
2023/02/02 13:00:26;;;;;;;2.50;2.30;;;3.80;99.90;;;;;;6203665;23;20790;-72
2023/02/02 13:03:06;;;;;;;2.90;2.30;;;3.80;99.90;;;;;;6209823;23;20391;-72
2023/02/02 13:05:48;;;;;;;3.03;2.43;;;3.80;99.90;;;;;;6211535;23;20406;-73
2023/02/02 13:08:20;;;;;;;5.23;2.10;;;3.70;99.90;;;;;;6214172;23;20418;-73
2023/02/02 13:10:52;;;;;;;5.00;2.50;;;3.70;99.90;;;;;;6215206;23;20887;-73
2023/02/02 13:13:23;;;;;;;4.03;2.20;;;3.70;99.90;;;;;;6214738;23;20443;-73
2023/02/02 13:15:57;;;;;;;4.90;2.87;;;3.60;99.90;;;;;;6217118;23;20403;-73
2023/02/02 13:18:29;;;;;;;9.03;2.60;;;3.60;99.90;;;;;;6216063;23;20745;-75
2023/02/02 13:21:00;;;;;;;4.17;2.80;;;3.60;99.90;;;;;;6212738;23;20407;-73
2023/02/02 13:23:30;;;;;;;5.90;2.70;;;3.60;99.90;;;;;;6210192;23;20912;-74
2023/02/02 13:26:02;;;;;;;2.37;2.10;;;3.60;99.90;;;;;;6212388;23;20386;-72
2023/02/02 13:28:36;;;;;;;5.43;1.93;;;3.60;99.90;;;;;;6211747;23;20392;-73
2023/02/02 13:31:11;;;;;;;8.63;4.37;;;3.60;99.90;;;;;;6209569;23;20411;-73
2023/02/02 13:33:38;;;;;;;4.43;3.80;;;3.60;99.90;;;;;;6209000;23;20460;-73
2023/02/02 13:36:14;;;;;;;3.23;2.93;;;3.70;99.90;;;;;;6209376;23;20397;-73
2023/02/02 13:38:41;;;;;;;3.50;2.03;;;3.60;99.90;;;;;;6209676;23;21054;-73
2023/02/02 13:41:12;;;;;;;4.73;3.00;;;3.60;99.90;;;;;;6209516;23;20454;-74